Time;durP1;ratioP1;P1;durP2;ratioP2;P2;SDS_P1;SDS_P2;PMS_P1;PMS_P2;Temp;Humidity;BMP_temperature;BMP_pressure;BME280_temperature;BME280_humidity;BME280_pressure;Samples;Min_cycle;Max_cycle;Signal;HPM_P1;HPM_P2
2022/07/13 00:00:12;;;;;;;1.60;1.50;;;;;;;18.32;54.38;96312.41;5105919;28;20046;-67
2022/07/13 00:02:38;;;;;;;1.15;1.15;;;;;;;18.26;54.82;96312.28;5096640;28;20685;-68
2022/07/13 00:05:06;;;;;;;1.63;1.30;;;;;;;18.23;54.63;96310.78;5100191;28;20043;-67
2022/07/13 00:07:32;;;;;;;1.23;1.20;;;;;;;18.22;54.32;96316.31;5113033;28;20019;-67
2022/07/13 00:09:58;;;;;;;1.52;1.42;;;;;;;18.16;53.25;96313.34;5112907;28;20547;-67
2022/07/13 00:12:24;;;;;;;2.03;1.30;;;;;;;18.14;53.31;96310.03;5112612;28;20055;-67
2022/07/13 00:14:49;;;;;;;1.75;1.65;;;;;;;18.09;53.68;96315.03;5112626;28;20043;-67
2022/07/13 00:17:14;;;;;;;1.25;1.23;;;;;;;18.04;55.49;96312.06;5112599;28;20034;-67
2022/07/13 00:19:40;;;;;;;1.58;1.33;;;;;;;18.03;54.07;96313.06;5112292;28;20039;-67
2022/07/13 00:22:05;;;;;;;1.33;1.25;;;;;;;17.96;55.08;96323.53;5112550;28;20024;-67
2022/07/13 00:24:30;;;;;;;1.55;1.27;;;;;;;17.93;55.88;96328.41;5112639;28;20475;-67
2022/07/13 00:26:56;;;;;;;1.55;1.45;;;;;;;17.93;55.14;96318.56;5102171;28;20025;-67
2022/07/13 00:29:21;;;;;;;1.23;1.10;;;;;;;17.87;56.32;96329.91;5097244;28;20023;-67
2022/07/13 00:31:46;;;;;;;1.30;1.30;;;;;;;17.85;56.55;96331.94;5112436;28;20046;-67
2022/07/13 00:34:13;;;;;;;1.48;1.38;;;;;;;17.78;55.94;96325.63;5111516;28;20386;-67
2022/07/13 00:36:38;;;;;;;1.40;1.40;;;;;;;17.76;55.41;96328.47;5112064;28;20019;-67
2022/07/13 00:39:03;;;;;;;1.92;1.65;;;;;;;17.72;55.84;96325.31;5112523;28;20410;-67
2022/07/13 00:41:29;;;;;;;1.20;1.20;;;;;;;17.71;57.25;96322.84;5111996;28;20039;-67
2022/07/13 00:44:06;;;;;;;1.50;1.40;;;;;;;17.74;56.53;96322.47;5112213;28;20665;-67
2022/07/13 00:46:32;;;;;;;1.35;1.17;;;;;;;17.72;55.77;96327.97;5099132;28;20062;-67
2022/07/13 00:48:58;;;;;;;3.38;1.58;;;;;;;17.68;55.68;96323.16;5110539;28;20126;-67
2022/07/13 00:51:24;;;;;;;1.83;1.38;;;;;;;17.57;56.74;96321.69;5107932;28;20035;-67
2022/07/13 00:53:49;;;;;;;4.57;1.48;;;;;;;17.46;59.50;96322.88;5096409;28;20926;-67
2022/07/13 00:56:15;;;;;;;1.52;1.42;;;;;;;17.43;60.61;96332.03;5111833;28;20180;-67
2022/07/13 00:58:42;;;;;;;1.27;1.15;;;;;;;17.41;60.54;96323.41;5111278;28;20127;-67
2022/07/13 01:01:07;;;;;;;1.45;1.33;;;;;;;17.37;60.73;96321.25;5111870;28;20165;-67
2022/07/13 01:03:33;;;;;;;2.72;1.30;;;;;;;17.36;57.93;96323.09;5111840;28;20562;-67
2022/07/13 01:05:59;;;;;;;1.10;1.10;;;;;;;17.33;57.72;96326.06;5111462;28;20047;-67
2022/07/13 01:08:25;;;;;;;1.58;1.48;;;;;;;17.26;56.84;96317.94;5111459;28;20023;-67
2022/07/13 01:10:51;;;;;;;1.50;1.40;;;;;;;17.22;59.39;96329.09;5111450;28;20397;-67
2022/07/13 01:13:18;;;;;;;1.20;1.20;;;;;;;17.16;58.80;96326.09;5111622;28;20107;-67
2022/07/13 01:15:43;;;;;;;1.20;1.20;;;;;;;17.11;59.60;96320.44;5111148;28;20104;-67
2022/07/13 01:18:12;;;;;;;1.27;1.27;;;;;;;17.15;57.71;96316.47;5095141;28;20061;-67
2022/07/13 01:20:40;;;;;;;2.25;1.40;;;;;;;17.14;57.91;96317.47;5105285;28;20506;-67
2022/07/13 01:23:14;;;;;;;1.58;1.48;;;;;;;17.01;58.60;96319.78;5111353;28;20024;-67
2022/07/13 01:25:41;;;;;;;1.17;1.17;;;;;;;16.96;58.86;96316.78;5111247;28;20588;-67
2022/07/13 01:28:07;;;;;;;1.20;1.15;;;;;;;16.99;58.10;96322.59;5111587;28;20034;-67
2022/07/13 01:30:32;;;;;;;1.60;1.50;;;;;;;16.99;58.71;96316.47;5111051;28;20069;-67
2022/07/13 01:32:58;;;;;;;1.27;1.17;;;;;;;16.88;59.52;96309.63;5111259;28;20478;-67
2022/07/13 01:35:24;;;;;;;1.35;1.25;;;;;;;16.79;60.08;96308.78;5111097;28;20027;-67
2022/07/13 01:37:50;;;;;;;2.67;1.20;;;;;;;16.78;60.31;96309.78;5111023;28;20028;-67
2022/07/13 01:40:16;;;;;;;1.25;1.25;;;;;;;16.75;61.32;96305.63;5111210;28;20023;-67
2022/07/13 01:42:42;;;;;;;3.03;1.40;;;;;;;16.68;61.61;96306.44;5090118;28;20514;-67
2022/07/13 01:45:08;;;;;;;2.05;1.42;;;;;;;16.69;60.30;96306.28;5097185;28;20028;-67
2022/07/13 01:47:40;;;;;;;1.40;1.30;;;;;;;16.69;60.14;96305.44;5097751;28;20038;-67
2022/07/13 01:50:07;;;;;;;1.10;1.10;;;;;;;16.66;60.61;96303.97;5096328;28;20032;-67
2022/07/13 01:52:33;;;;;;;1.05;1.05;;;;;;;16.60;61.21;96310.75;5082774;28;20036;-67
2022/07/13 01:54:59;;;;;;;1.30;1.20;;;;;;;16.53;61.35;96306.25;5110579;28;20088;-67
2022/07/13 01:57:24;;;;;;;1.70;1.48;;;;;;;16.59;62.38;96305.63;5110294;28;20043;-67
2022/07/13 01:59:51;;;;;;;1.38;1.38;;;;;;;16.56;61.98;96305.94;5092422;28;20024;-67
2022/07/13 02:02:16;;;;;;;1.30;1.30;;;;;;;16.51;61.49;96306.44;5110428;28;20028;-67
2022/07/13 02:04:42;;;;;;;1.60;1.50;;;;;;;16.36;63.49;96305.41;5110791;28;20023;-67
2022/07/13 02:07:08;;;;;;;1.13;1.13;;;;;;;16.25;62.64;96307.41;5097059;28;20029;-67
2022/07/13 02:09:33;;;;;;;4.00;1.10;;;;;;;16.22;62.34;96318.31;5092545;28;20055;-67
2022/07/13 02:11:59;;;;;;;2.65;1.50;;;;;;;16.29;61.81;96318.50;5110358;28;20032;-67
2022/07/13 02:14:24;;;;;;;1.33;1.20;;;;;;;16.31;61.11;96314.72;5110307;28;20061;-67
2022/07/13 02:16:49;;;;;;;1.40;1.38;;;;;;;16.35;60.42;96317.03;5093226;28;20032;-68
2022/07/13 02:19:15;;;;;;;1.77;1.60;;;;;;;16.37;60.77;96317.72;5090694;28;20035;-67
2022/07/13 02:21:40;;;;;;;3.17;1.52;;;;;;;16.39;60.32;96321.03;5094977;28;20024;-67
2022/07/13 02:24:06;;;;;;;1.20;1.20;;;;;;;16.44;60.37;96319.56;5110251;28;20108;-67
2022/07/13 02:26:31;;;;;;;1.45;1.38;;;;;;;16.49;60.50;96321.72;5088802;28;20066;-67
2022/07/13 02:28:56;;;;;;;1.63;1.52;;;;;;;16.49;61.04;96316.41;5084771;28;20016;-67
2022/07/13 02:31:22;;;;;;;4.20;1.67;;;;;;;16.45;61.44;96310.59;5088376;28;20103;-67
2022/07/13 02:33:47;;;;;;;1.55;1.48;;;;;;;16.45;61.21;96317.72;5083746;28;20062;-67
2022/07/13 02:36:12;;;;;;;1.70;1.60;;;;;;;16.42;62.36;96310.06;5091225;28;20123;-67
2022/07/13 02:38:38;;;;;;;1.70;1.60;;;;;;;16.40;60.74;96312.06;5110300;28;20035;-67
2022/07/13 02:41:03;;;;;;;1.45;1.30;;;;;;;16.34;61.48;96308.22;5110124;28;20059;-67
2022/07/13 02:43:29;;;;;;;1.42;1.33;;;;;;;16.30;62.39;96305.09;5110046;28;20532;-67
2022/07/13 02:45:54;;;;;;;1.45;1.45;;;;;;;16.28;63.29;96303.56;5105316;28;20059;-67
2022/07/13 02:48:20;;;;;;;1.92;1.52;;;;;;;16.21;63.41;96300.72;5107425;28;20027;-67
2022/07/13 02:50:46;;;;;;;2.45;1.67;;;;;;;16.13;63.81;96300.72;5082896;28;20111;-67
2022/07/13 02:53:11;;;;;;;3.50;1.80;;;;;;;16.12;63.32;96304.38;5104755;28;20850;-67
2022/07/13 02:55:36;;;;;;;1.27;1.23;;;;;;;16.06;64.11;96303.19;5091229;28;20032;-67
2022/07/13 02:58:02;;;;;;;3.50;1.63;;;;;;;16.02;64.97;96304.50;5082205;28;20040;-67
2022/07/13 03:00:27;;;;;;;1.45;1.42;;;;;;;16.01;64.37;96308.97;5098690;28;20426;-67
2022/07/13 03:02:52;;;;;;;1.40;1.40;;;;;;;15.99;66.23;96313.59;5097904;28;20032;-67
2022/07/13 03:05:18;;;;;;;1.77;1.67;;;;;;;15.99;65.32;96310.97;5103124;28;20023;-67
2022/07/13 03:07:43;;;;;;;1.55;1.40;;;;;;;15.96;64.55;96303.31;5109436;28;20024;-67
2022/07/13 03:10:09;;;;;;;1.90;1.52;;;;;;;15.89;65.49;96310.28;5107269;28;20020;-67
2022/07/13 03:12:34;;;;;;;1.45;1.40;;;;;;;15.85;64.72;96312.38;5093128;28;20032;-67
2022/07/13 03:14:59;;;;;;;3.90;1.23;;;;;;;15.84;64.11;96312.56;5093315;28;20055;-67
2022/07/13 03:17:25;;;;;;;1.50;1.50;;;;;;;15.82;64.97;96306.56;5093200;28;20581;-67
2022/07/13 03:19:50;;;;;;;2.38;1.45;;;;;;;15.86;64.75;96307.91;5093284;28;20378;-67
2022/07/13 03:22:16;;;;;;;1.80;1.70;;;;;;;15.80;65.21;96306.72;5092982;28;20058;-67
2022/07/13 03:24:41;;;;;;;1.70;1.60;;;;;;;15.79;66.11;96304.22;5092552;28;20161;-67
2022/07/13 03:27:06;;;;;;;2.67;1.40;;;;;;;15.75;65.41;96309.03;5074555;28;20056;-67
2022/07/13 03:29:32;;;;;;;1.63;1.50;;;;;;;15.76;65.46;96305.38;5092645;28;20514;-67
2022/07/13 03:31:57;;;;;;;3.60;1.52;;;;;;;15.82;65.19;96304.72;5093219;28;20085;-67
2022/07/13 03:34:23;;;;;;;1.20;1.20;;;;;;;15.77;65.18;96307.03;5090684;28;20023;-67
2022/07/13 03:36:48;;;;;;;1.77;1.40;;;;;;;15.76;64.73;96305.38;5091976;28;20034;-67
2022/07/13 03:39:13;;;;;;;4.43;1.40;;;;;;;15.73;65.11;96314.47;5091226;28;20036;-66
2022/07/13 03:41:39;;;;;;;2.83;1.60;;;;;;;15.69;65.53;96310.47;5092094;28;20114;-67
2022/07/13 03:44:05;;;;;;;1.60;1.50;;;;;;;15.68;65.61;96313.28;5092126;28;20475;-67
2022/07/13 03:46:30;;;;;;;1.40;1.40;;;;;;;15.68;65.91;96319.44;5092142;28;20047;-67
2022/07/13 03:48:55;;;;;;;2.63;1.20;;;;;;;15.66;65.91;96310.81;5091467;28;20070;-67
2022/07/13 03:51:21;;;;;;;1.58;1.48;;;;;;;15.65;67.12;96318.91;5093179;28;20028;-67
2022/07/13 03:53:46;;;;;;;1.40;1.40;;;;;;;15.55;66.33;96325.19;5090487;28;20039;-66
2022/07/13 03:56:12;;;;;;;1.58;1.48;;;;;;;15.59;65.80;96320.41;5092387;28;20061;-67
2022/07/13 03:58:37;;;;;;;1.48;1.40;;;;;;;15.61;66.02;96334.34;5092187;28;20044;-67
2022/07/13 04:01:03;;;;;;;1.33;1.30;;;;;;;15.65;65.88;96324.22;5074352;28;20506;-68
2022/07/13 04:03:28;;;;;;;1.92;1.77;;;;;;;15.65;66.43;96326.88;5092150;28;20016;-68
2022/07/13 04:05:53;;;;;;;1.33;1.33;;;;;;;15.60;67.02;96330.03;5092472;28;20054;-68
2022/07/13 04:08:19;;;;;;;2.08;1.45;;;;;;;15.64;66.03;96328.72;5092045;28;20028;-67
2022/07/13 04:10:44;;;;;;;1.83;1.42;;;;;;;15.63;66.98;96332.34;5091473;28;20433;-67
2022/07/13 04:13:09;;;;;;;1.70;1.60;;;;;;;15.70;65.60;96337.88;5091767;28;20028;-68
2022/07/13 04:15:35;;;;;;;3.22;1.50;;;;;;;15.74;65.88;96332.06;5094600;28;20046;-66
2022/07/13 04:18:00;;;;;;;1.60;1.50;;;;;;;15.68;66.41;96335.38;5107690;28;20035;-68
2022/07/13 04:20:25;;;;;;;1.70;1.60;;;;;;;15.71;65.78;96335.03;5092032;28;20024;-67
2022/07/13 04:22:51;;;;;;;1.60;1.50;;;;;;;15.70;66.78;96337.88;5091782;28;20035;-67
2022/07/13 04:25:16;;;;;;;1.83;1.73;;;;;;;15.71;67.13;96328.91;5091175;28;20059;-67
2022/07/13 04:27:42;;;;;;;1.63;1.48;;;;;;;15.75;65.92;96338.22;5110238;28;20532;-67
2022/07/13 04:30:08;;;;;;;1.40;1.30;;;;;;;15.76;65.88;96337.22;5104160;28;20023;-67
2022/07/13 04:32:33;;;;;;;1.50;1.40;;;;;;;15.74;66.54;96342.69;5107960;28;20479;-67
2022/07/13 04:34:58;;;;;;;1.80;1.70;;;;;;;15.73;67.79;96335.72;5112204;28;20027;-67
2022/07/13 04:37:24;;;;;;;1.30;1.30;;;;;;;15.69;67.40;96336.19;5112611;28;20047;-68
2022/07/13 04:39:49;;;;;;;1.83;1.50;;;;;;;15.70;67.02;96330.72;5111994;28;20494;-68
2022/07/13 04:42:15;;;;;;;1.73;1.33;;;;;;;15.79;66.68;96328.94;5092574;28;20407;-68
2022/07/13 04:44:40;;;;;;;1.80;1.70;;;;;;;15.71;66.88;96336.88;5091377;28;20105;-68
2022/07/13 04:47:05;;;;;;;2.95;1.58;;;;;;;15.69;67.47;96330.88;5088947;28;20498;-68
2022/07/13 04:49:31;;;;;;;2.03;1.75;;;;;;;15.61;68.19;96339.66;5091451;28;20024;-68
2022/07/13 04:51:56;;;;;;;3.45;2.50;;;;;;;15.52;68.42;96337.91;5091566;28;20023;-68
2022/07/13 04:54:22;;;;;;;2.35;2.15;;;;;;;15.46;68.29;96332.25;5090979;28;20493;-67
2022/07/13 04:56:48;;;;;;;29.60;2.00;;;;;;;15.44;69.36;96333.41;5090974;28;20077;-67
2022/07/13 04:59:15;;;;;;;3.80;2.08;;;;;;;15.45;68.60;96338.56;5091218;28;20039;-68
2022/07/13 05:01:41;;;;;;;9.55;1.50;;;;;;;15.55;67.87;96332.28;5091049;28;20099;-68
2022/07/13 05:04:07;;;;;;;3.20;1.80;;;;;;;15.62;67.60;96333.34;5091358;28;20016;-68
2022/07/13 05:06:33;;;;;;;3.63;1.70;;;;;;;15.64;67.58;96330.53;5089712;28;20024;-68
2022/07/13 05:08:59;;;;;;;2.42;1.67;;;;;;;15.66;68.08;96345.31;5091511;28;20372;-68
2022/07/13 05:11:24;;;;;;;1.50;1.50;;;;;;;15.67;68.80;96344.31;5091334;28;20027;-68
2022/07/13 05:13:50;;;;;;;1.77;1.50;;;;;;;15.69;68.45;96337.03;5091039;28;20031;-68
2022/07/13 05:16:16;;;;;;;1.30;1.30;;;;;;;15.77;69.36;96338.91;5090836;28;20028;-68
2022/07/13 05:18:41;;;;;;;1.52;1.42;;;;;;;15.90;69.12;96354.41;5091009;28;20613;-68
2022/07/13 05:21:07;;;;;;;3.17;1.60;;;;;;;16.04;68.20;96351.16;5090641;28;20031;-68
2022/07/13 05:23:34;;;;;;;1.80;1.70;;;;;;;16.17;68.31;96358.69;5088462;28;20146;-68
2022/07/13 05:25:59;;;;;;;3.38;1.50;;;;;;;16.34;68.15;96350.72;5091945;28;20024;-68
2022/07/13 05:28:25;;;;;;;2.38;1.48;;;;;;;16.65;66.56;96358.13;5091361;28;20825;-68
2022/07/13 05:30:50;;;;;;;3.70;1.70;;;;;;;16.89;65.72;96354.66;5089840;28;20024;-67
2022/07/13 05:33:18;;;;;;;1.85;1.73;;;;;;;17.03;65.53;96355.03;5085709;28;20032;-68
2022/07/13 05:35:44;;;;;;;1.75;1.63;;;;;;;17.08;65.81;96354.53;5104678;28;20084;-68
2022/07/13 05:38:09;;;;;;;2.20;1.83;;;;;;;17.11;65.33;96352.34;5108045;28;20039;-70
2022/07/13 05:40:35;;;;;;;5.25;2.20;;;;;;;17.16;65.21;96352.72;5108636;28;20023;-69
2022/07/13 05:43:00;;;;;;;2.60;2.33;;;;;;;17.27;64.71;96356.00;5095185;28;20699;-67
2022/07/13 05:45:25;;;;;;;4.85;2.15;;;;;;;17.35;65.04;96357.84;5102793;28;20050;-67
2022/07/13 05:47:51;;;;;;;14.27;2.90;;;;;;;17.46;64.13;96355.66;5108459;28;20022;-68
2022/07/13 05:50:17;;;;;;;4.32;2.08;;;;;;;17.57;64.14;96362.44;5105786;28;20020;-69
2022/07/13 05:52:43;;;;;;;5.70;2.63;;;;;;;17.69;63.28;96359.44;5107958;28;20391;-68
2022/07/13 05:55:10;;;;;;;5.10;2.60;;;;;;;17.87;63.04;96361.88;5107081;28;20027;-70
2022/07/13 05:57:36;;;;;;;3.55;1.88;;;;;;;18.04;61.75;96360.88;5107214;28;20132;-69
2022/07/13 06:00:04;;;;;;;2.53;1.80;;;;;;;18.23;62.00;96364.09;5105276;28;20028;-69
2022/07/13 06:02:30;;;;;;;6.75;2.00;;;;;;;18.38;61.64;96369.53;5107434;28;20020;-74
2022/07/13 06:04:55;;;;;;;2.45;2.10;;;;;;;18.51;61.48;96371.63;5106411;28;20494;-71
2022/07/13 06:07:21;;;;;;;8.52;3.08;;;;;;;18.63;61.41;96368.56;5108047;28;20027;-70
2022/07/13 06:09:46;;;;;;;9.00;1.52;;;;;;;18.67;60.62;96375.19;5102592;28;20106;-67
2022/07/13 06:12:11;;;;;;;8.48;1.92;;;;;;;18.79;60.19;96375.59;5106158;28;20463;-70
2022/07/13 06:14:37;;;;;;;3.50;1.98;;;;;;;19.01;59.33;96368.66;5106396;28;20054;-69
2022/07/13 06:17:02;;;;;;;5.40;1.50;;;;;;;19.18;57.40;96378.19;5104707;28;20055;-70
2022/07/13 06:19:28;;;;;;;2.08;1.40;;;;;;;19.32;56.51;96371.25;5107002;28;20067;-68
2022/07/13 06:21:53;;;;;;;3.75;1.90;;;;;;;19.45;55.32;96370.63;5106211;28;20024;-66
2022/07/13 06:24:18;;;;;;;1.67;1.38;;;;;;;19.65;54.27;96370.09;5098089;28;20460;-66
2022/07/13 06:26:44;;;;;;;3.88;1.42;;;;;;;19.84;55.08;96370.56;5091694;28;20114;-68
2022/07/13 06:29:10;;;;;;;1.92;1.52;;;;;;;20.01;54.21;96377.44;5105350;28;20030;-69
2022/07/13 06:31:35;;;;;;;1.40;1.40;;;;;;;20.27;53.10;96367.25;5107842;28;20031;-69
2022/07/13 06:34:00;;;;;;;1.92;1.40;;;;;;;20.52;52.46;96375.78;5107709;28;20046;-69
2022/07/13 06:36:26;;;;;;;1.25;1.20;;;;;;;20.78;50.97;96377.09;5105491;28;20433;-68
2022/07/13 06:38:51;;;;;;;4.20;1.40;;;;;;;21.11;49.77;96379.31;5106412;28;20024;-69
2022/07/13 06:41:17;;;;;;;1.45;1.23;;;;;;;21.51;48.53;96384.16;5102265;28;20089;-69
2022/07/13 06:43:43;;;;;;;4.10;1.20;;;;;;;22.09;47.45;96385.78;5083568;28;20107;-68
2022/07/13 06:46:08;;;;;;;2.97;1.40;;;;;;;22.49;47.37;96382.53;5088209;28;20024;-70
2022/07/13 06:48:37;;;;;;;1.08;1.08;;;;;;;22.87;47.37;96392.72;5095218;28;20066;-70
2022/07/13 06:51:03;;;;;;;1.60;1.50;;;;;;;23.31;45.07;96387.03;5095846;28;20016;-70
2022/07/13 06:53:29;;;;;;;3.33;1.80;;;;;;;23.58;45.30;96381.69;5096739;28;20024;-70
2022/07/13 06:55:54;;;;;;;1.60;1.50;;;;;;;23.83;44.22;96379.16;5100365;28;20057;-70
2022/07/13 06:58:21;;;;;;;2.33;1.48;;;;;;;24.09;44.36;96382.03;5106837;28;20036;-70
2022/07/13 07:00:47;;;;;;;2.10;1.40;;;;;;;24.37;43.77;96370.16;5091816;28;20028;-70
2022/07/13 07:03:12;;;;;;;7.13;1.60;;;;;;;24.68;42.23;96376.66;5078507;28;20027;-70
2022/07/13 07:05:38;;;;;;;5.35;1.30;;;;;;;24.92;41.10;96376.97;5085773;28;20028;-70
2022/07/13 07:08:03;;;;;;;3.42;1.60;;;;;;;25.37;40.62;96376.84;5084043;28;20031;-69
2022/07/13 07:10:29;;;;;;;3.17;1.27;;;;;;;25.62;39.44;96378.75;5081280;28;20020;-70
2022/07/13 07:12:54;;;;;;;1.30;1.20;;;;;;;25.81;39.54;96374.19;5090024;28;20078;-70
2022/07/13 07:15:20;;;;;;;1.65;1.33;;;;;;;26.09;36.74;96366.66;5071233;28;20028;-70
2022/07/13 07:17:46;;;;;;;1.88;1.73;;;;;;;26.43;37.27;96373.34;5076458;28;20120;-70
2022/07/13 07:20:12;;;;;;;1.45;1.30;;;;;;;26.50;37.52;96377.84;5084409;28;20528;-69
2022/07/13 07:22:37;;;;;;;1.63;1.27;;;;;;;26.65;36.06;96380.16;5089033;28;20032;-68
2022/07/13 07:25:03;;;;;;;2.55;1.70;;;;;;;26.68;36.49;96383.22;5086281;28;20058;-70
2022/07/13 07:27:28;;;;;;;5.45;1.30;;;;;;;26.84;34.48;96381.75;5084578;28;20379;-70
2022/07/13 07:29:54;;;;;;;4.18;1.20;;;;;;;26.94;35.25;96380.41;5082028;28;20032;-70
2022/07/13 07:32:19;;;;;;;2.80;1.00;;;;;;;27.02;34.90;96374.69;5074601;28;20031;-70
2022/07/13 07:34:44;;;;;;;1.38;1.10;;;;;;;27.15;33.77;96374.50;5076647;28;20032;-70
2022/07/13 07:37:10;;;;;;;3.53;1.17;;;;;;;27.42;33.98;96367.84;5078882;28;20177;-68
2022/07/13 07:39:36;;;;;;;2.72;0.98;;;;;;;27.64;33.06;96378.13;5071240;28;20031;-69
2022/07/13 07:42:03;;;;;;;2.85;1.08;;;;;;;27.74;32.09;96371.09;5085341;28;20123;-69
2022/07/13 07:44:29;;;;;;;4.05;1.05;;;;;;;27.87;32.83;96370.03;5076985;28;20082;-70
2022/07/13 07:46:55;;;;;;;0.80;0.80;;;;;;;27.97;31.13;96371.28;5104670;28;20078;-70
2022/07/13 07:49:20;;;;;;;2.00;1.00;;;;;;;28.16;30.59;96366.59;5110163;28;20444;-70
2022/07/13 07:51:46;;;;;;;1.63;1.00;;;;;;;28.49;31.29;96365.09;5089922;28;20063;-72
2022/07/13 07:54:11;;;;;;;1.10;1.00;;;;;;;28.66;30.43;96367.06;5089887;28;20029;-71
2022/07/13 07:56:36;;;;;;;1.10;1.10;;;;;;;28.82;30.54;96374.41;5084918;28;20031;-71
2022/07/13 07:59:02;;;;;;;1.00;0.95;;;;;;;28.83;30.94;96376.06;5078944;28;20049;-68
2022/07/13 08:01:28;;;;;;;3.50;1.10;;;;;;;29.02;29.95;96373.16;5077622;28;20028;-70
2022/07/13 08:03:54;;;;;;;1.52;1.00;;;;;;;29.22;28.43;96374.59;5089482;28;20074;-70
2022/07/13 08:06:20;;;;;;;2.60;1.05;;;;;;;29.10;28.94;96367.34;5088506;28;20040;-69
2022/07/13 08:08:45;;;;;;;0.98;0.98;;;;;;;29.28;27.93;96371.72;5091814;28;20058;-70
2022/07/13 08:11:16;;;;;;;2.47;1.23;;;;;;;29.46;28.66;96364.44;5108270;28;20145;-70
2022/07/13 08:13:42;;;;;;;3.10;0.90;;;;;;;29.13;29.21;96366.03;5105834;28;20023;-69
2022/07/13 08:16:08;;;;;;;1.20;1.00;;;;;;;29.37;28.44;96365.88;5094101;28;20028;-71
2022/07/13 08:18:33;;;;;;;1.17;1.10;;;;;;;29.88;28.12;96368.59;5102534;28;20039;-70
2022/07/13 08:21:00;;;;;;;0.95;0.75;;;;;;;30.41;28.11;96360.09;5085038;28;20218;-69
2022/07/13 08:26:09;;;;;;;1.13;1.00;;;;;;;30.43;27.56;96357.97;5100774;28;20080;-69
2022/07/13 08:28:34;;;;;;;1.08;0.82;;;;;;;30.26;28.21;96361.56;5105535;28;20027;-69
2022/07/13 08:31:00;;;;;;;1.92;1.25;;;;;;;30.15;28.40;96359.75;5105696;28;20051;-68
2022/07/13 08:38:53;;;;;;;1.33;1.13;;;;;;;30.92;26.84;96353.63;5109187;28;20084;-70
2022/07/13 08:41:19;;;;;;;1.77;1.30;;;;;;;30.98;26.47;96355.31;5108820;28;20620;-69
2022/07/13 08:43:44;;;;;;;1.15;1.00;;;;;;;31.03;27.10;96360.78;5105930;28;20517;-69
2022/07/13 08:46:10;;;;;;;0.82;0.82;;;;;;;31.58;26.10;96352.59;5102155;28;20173;-68
2022/07/13 08:48:38;;;;;;;1.50;1.00;;;;;;;31.33;26.19;96347.75;5103239;28;20590;-70
2022/07/13 08:51:20;;;;;;;1.80;0.98;;;;;;;31.25;28.38;96351.75;5104964;28;20652;-71
2022/07/13 08:53:47;;;;;;;1.83;1.73;;;;;;;31.59;26.17;96346.88;5097848;28;20024;-69
2022/07/13 08:56:12;;;;;;;1.20;1.10;;;;;;;31.89;25.90;96347.38;5091206;28;20406;-69
2022/07/13 08:58:38;;;;;;;1.23;1.23;;;;;;;31.47;26.99;96348.97;5090818;28;20075;-70
2022/07/13 09:01:05;;;;;;;0.93;0.93;;;;;;;31.62;27.10;96353.69;5086005;28;20115;-71
2022/07/13 09:03:35;;;;;;;2.95;0.98;;;;;;;31.74;26.60;96339.91;5084718;28;20016;-72
2022/07/13 09:06:00;;;;;;;1.65;0.98;;;;;;;31.68;26.32;96339.03;5092652;28;20040;-72
2022/07/13 09:08:26;;;;;;;2.22;1.17;;;;;;;31.48;26.09;96345.16;5091826;28;20063;-71
2022/07/13 09:10:59;;;;;;;1.42;0.90;;;;;;;31.55;27.07;96347.66;5091315;28;20039;-70
2022/07/13 09:13:44;;;;;;;2.83;1.45;;;;;;;31.63;26.64;96330.03;5083112;28;20036;-71
2022/07/13 09:16:13;;;;;;;1.75;1.10;;;;;;;31.77;26.08;96330.44;5085891;28;20115;-71
2022/07/13 09:18:40;;;;;;;1.00;1.00;;;;;;;31.93;27.11;96329.41;5089034;28;20428;-71
2022/07/13 09:21:06;;;;;;;0.80;0.80;;;;;;;32.27;26.59;96325.50;5094116;28;20024;-70
2022/07/13 09:23:32;;;;;;;0.77;0.77;;;;;;;32.65;25.45;96328.13;5087651;28;20025;-71
2022/07/13 09:25:57;;;;;;;1.88;1.30;;;;;;;32.39;26.36;96333.50;5083506;28;20022;-71
2022/07/13 09:28:22;;;;;;;2.55;1.10;;;;;;;32.86;26.40;96332.53;5089850;28;20101;-71
2022/07/13 09:30:48;;;;;;;3.42;1.30;;;;;;;32.81;26.77;96328.97;5089589;28;20047;-72
2022/07/13 09:33:13;;;;;;;3.85;1.30;;;;;;;32.48;26.67;96325.59;5088296;28;20028;-71
2022/07/13 09:35:39;;;;;;;0.95;0.95;;;;;;;32.54;25.85;96328.06;5090419;28;20070;-71
2022/07/13 09:38:04;;;;;;;1.00;0.87;;;;;;;32.98;25.44;96326.84;5088229;28;20069;-71
2022/07/13 09:40:29;;;;;;;3.97;1.00;;;;;;;32.90;25.29;96334.75;5088833;28;20274;-71
2022/07/13 09:48:24;;;;;;;2.05;1.05;;;;;;;32.97;23.54;96338.00;5084006;28;20386;-67
2022/07/13 09:50:57;;;;;;;4.47;1.20;;;;;;;32.09;26.16;96333.06;5090706;28;20028;-70
2022/07/13 09:53:23;;;;;;;5.18;1.10;;;;;;;32.29;25.09;96332.31;5092147;28;20502;-69
2022/07/13 09:55:51;;;;;;;0.90;0.90;;;;;;;33.00;23.51;96338.28;5090584;28;20105;-69
2022/07/13 09:58:22;;;;;;;1.23;1.13;;;;;;;32.09;24.91;96343.13;5091273;28;20036;-69
2022/07/13 10:00:48;;;;;;;1.42;1.00;;;;;;;32.21;25.35;96340.19;5090527;28;20020;-70
2022/07/13 10:03:14;;;;;;;1.05;0.90;;;;;;;32.28;25.28;96336.13;5091091;28;20034;-70
2022/07/13 10:05:40;;;;;;;1.33;0.95;;;;;;;32.25;24.93;96333.94;5086981;28;20063;-70
2022/07/13 10:08:07;;;;;;;1.30;1.00;;;;;;;32.54;25.42;96335.44;5088045;28;20023;-70
2022/07/13 10:10:33;;;;;;;1.20;1.10;;;;;;;32.89;24.16;96339.34;5090012;28;20024;-69
2022/07/13 10:13:05;;;;;;;1.27;0.90;;;;;;;32.23;24.20;96341.56;5089750;28;20024;-68
2022/07/13 10:15:31;;;;;;;1.20;1.10;;;;;;;32.36;25.37;96342.16;5083755;28;20032;-68
2022/07/13 10:18:00;;;;;;;2.05;1.00;;;;;;;32.27;24.73;96339.94;5065897;28;20028;-68
2022/07/13 10:20:28;;;;;;;1.67;0.90;;;;;;;32.90;24.34;96334.75;5089863;28;20603;-68
2022/07/13 10:22:53;;;;;;;1.42;1.33;;;;;;;32.64;24.42;96337.38;5095301;28;20020;-68
2022/07/13 10:25:24;;;;;;;1.95;0.98;;;;;;;32.73;23.75;96341.22;5088803;28;20024;-68
2022/07/13 10:28:05;;;;;;;3.22;1.25;;;;;;;32.92;24.29;96335.28;5089305;28;20027;-69
2022/07/13 10:30:30;;;;;;;1.30;1.20;;;;;;;33.04;23.93;96344.00;5083872;28;20387;-67
2022/07/13 10:33:17;;;;;;;2.15;1.20;;;;;;;32.93;23.32;96335.00;5086904;28;20077;-68
2022/07/13 10:35:54;;;;;;;1.10;1.00;;;;;;;34.26;22.25;96331.63;5088290;28;20055;-67
2022/07/13 10:38:27;;;;;;;2.70;0.93;;;;;;;33.48;23.23;96334.53;5091551;28;20035;-68
2022/07/13 10:41:21;;;;;;;1.63;1.08;;;;;;;33.40;24.17;96332.31;5088814;28;20045;-70
2022/07/13 10:43:54;;;;;;;1.85;0.75;;;;;;;33.43;23.89;96329.88;5088431;28;20039;-68
2022/07/13 10:46:48;;;;;;;3.05;0.98;;;;;;;33.57;22.67;96330.13;5086655;28;20052;-67
2022/07/13 10:49:41;;;;;;;2.03;1.27;;;;;;;33.39;22.65;96323.31;5079977;28;20032;-67
2022/07/13 10:52:21;;;;;;;1.10;0.98;;;;;;;33.09;24.13;96332.28;5079097;28;20040;-68
2022/07/13 10:55:06;;;;;;;2.35;0.98;;;;;;;33.12;23.89;96318.94;5096025;28;20024;-69
2022/07/13 10:57:38;;;;;;;3.97;1.20;;;;;;;33.85;24.03;96319.72;5089169;28;20495;-69
2022/07/13 11:00:16;;;;;;;0.90;0.90;;;;;;;34.40;24.65;96327.19;5089390;28;20447;-69
2022/07/13 11:02:50;;;;;;;3.60;1.08;;;;;;;34.24;22.95;96322.88;5103074;28;20024;-69
2022/07/13 11:05:20;;;;;;;;;;;;;;;34.36;23.87;96330.75;5082574;28;20027;-72
2022/07/13 11:07:50;;;;;;;2.70;1.08;;;;;;;35.26;22.91;96317.13;5109903;28;19953;-70
2022/07/13 11:10:19;;;;;;;1.02;1.02;;;;;;;35.42;23.01;96313.16;5109946;28;20367;-70
2022/07/13 11:13:03;;;;;;;1.00;1.00;;;;;;;35.69;22.11;96314.56;5110140;28;20055;-73
2022/07/13 11:15:49;;;;;;;1.40;1.17;;;;;;;35.42;22.55;96315.91;5109509;28;20034;-73
2022/07/13 11:18:35;;;;;;;2.47;1.35;;;;;;;36.31;21.00;96309.53;5110218;28;20024;-68
2022/07/13 11:21:04;;;;;;;3.17;1.30;;;;;;;36.11;20.44;96305.94;5113780;28;20026;-72
2022/07/13 11:26:42;;;;;;;1.10;1.00;;;;;;;36.69;21.36;96309.63;5113872;28;20031;-72
2022/07/13 11:29:29;;;;;;;1.40;1.30;;;;;;;36.69;21.37;96304.13;5086175;28;20521;-71
2022/07/13 11:31:59;;;;;;;6.28;1.20;;;;;;;36.66;21.10;96293.75;5113731;28;20095;-71
2022/07/13 11:34:25;;;;;;;1.08;1.02;;;;;;;36.15;21.52;96303.44;5113814;28;20097;-71
2022/07/13 11:36:52;;;;;;;1.52;1.17;;;;;;;36.34;22.54;96303.47;5113181;28;20035;-71
2022/07/13 11:39:30;;;;;;;1.20;1.05;;;;;;;36.29;21.77;96296.16;5113444;28;20035;-70
2022/07/13 11:41:58;;;;;;;2.83;1.23;;;;;;;36.65;22.13;96287.44;5113641;28;20032;-70
2022/07/13 11:44:31;;;;;;;1.30;1.20;;;;;;;36.77;20.87;96295.22;5113540;28;20024;-71
2022/07/13 11:46:58;;;;;;;1.15;1.05;;;;;;;36.75;21.95;96282.94;5113515;28;20070;-70
2022/07/13 11:49:25;;;;;;;1.20;1.10;;;;;;;36.88;21.96;96284.13;5112765;28;20080;-70